createdAt,value
2024-05-09T00:00:18.679Z,5.80
2024-05-09T00:03:23.774Z,5.60
2024-05-09T00:06:01.255Z,4.60
2024-05-09T00:08:38.764Z,5.20
2024-05-09T00:11:16.432Z,4.70
2024-05-09T00:13:53.860Z,4.80
2024-05-09T00:16:31.161Z,6.00
2024-05-09T00:19:10.129Z,3.80
2024-05-09T00:21:49.068Z,5.10
2024-05-09T00:27:01.028Z,3.70
2024-05-09T00:29:38.277Z,4.20
2024-05-09T00:32:15.577Z,4.40
2024-05-09T00:34:53.031Z,4.30
2024-05-09T00:37:30.324Z,4.60
2024-05-09T00:40:15.053Z,5.20
2024-05-09T00:42:59.620Z,5.20
2024-05-09T00:45:37.274Z,5.40
2024-05-09T00:48:19.763Z,5.50
2024-05-09T00:50:58.855Z,4.90
2024-05-09T00:53:36.631Z,4.60
2024-05-09T00:56:15.773Z,5.40
2024-05-09T00:58:54.056Z,4.70
2024-05-09T01:01:32.076Z,4.10
2024-05-09T01:04:11.427Z,5.80
2024-05-09T01:06:50.187Z,4.90
2024-05-09T01:09:27.402Z,6.50
2024-05-09T01:12:04.653Z,4.70
2024-05-09T01:14:44.075Z,5.00
2024-05-09T01:17:21.751Z,5.00
2024-05-09T01:19:58.984Z,4.50
2024-05-09T01:22:37.149Z,5.20
2024-05-09T01:25:15.856Z,4.90
2024-05-09T01:27:53.060Z,4.30
2024-05-09T01:30:34.891Z,4.90
2024-05-09T01:33:15.237Z,9.70
2024-05-09T01:35:52.552Z,4.60
2024-05-09T01:38:29.755Z,4.10
2024-05-09T01:41:07.706Z,4.20
2024-05-09T01:43:45.106Z,6.10
2024-05-09T01:46:22.297Z,3.70
2024-05-09T01:48:59.840Z,5.10
2024-05-09T01:51:37.985Z,4.10
2024-05-09T01:54:15.135Z,5.00
2024-05-09T01:56:52.318Z,4.40
2024-05-09T01:59:29.568Z,4.80
2024-05-09T02:02:07.387Z,3.50
2024-05-09T02:04:48.181Z,4.70
2024-05-09T02:07:25.570Z,4.70
2024-05-09T02:10:06.491Z,4.50
2024-05-09T02:12:45.520Z,5.00
2024-05-09T02:15:23.032Z,4.50
2024-05-09T02:18:00.389Z,4.60
2024-05-09T02:20:38.093Z,4.40
2024-05-09T02:23:16.284Z,4.30
2024-05-09T02:25:53.768Z,5.20
2024-05-09T02:28:31.175Z,4.40
2024-05-09T02:31:08.440Z,3.30
2024-05-09T02:33:46.047Z,4.30
2024-05-09T02:36:23.293Z,5.60
2024-05-09T02:39:02.516Z,4.30
2024-05-09T02:41:39.929Z,4.30
2024-05-09T02:44:17.217Z,5.50
2024-05-09T02:46:54.658Z,3.50
2024-05-09T02:49:32.224Z,4.10
2024-05-09T02:52:10.299Z,5.20
2024-05-09T02:54:47.443Z,4.30
2024-05-09T02:57:24.616Z,4.70
2024-05-09T03:00:01.805Z,4.00
2024-05-09T03:02:39.296Z,3.90
2024-05-09T03:05:16.707Z,4.60
2024-05-09T03:07:53.934Z,4.40
2024-05-09T03:10:35.990Z,5.90
2024-05-09T03:13:16.774Z,4.20
2024-05-09T03:15:54.018Z,4.40
2024-05-09T03:18:31.166Z,5.40
2024-05-09T03:21:08.740Z,5.30
2024-05-09T03:23:47.276Z,4.80
2024-05-09T03:26:24.504Z,4.50
2024-05-09T03:29:02.962Z,3.90
2024-05-09T03:31:41.194Z,4.90
2024-05-09T03:34:18.419Z,4.70
2024-05-09T03:36:55.678Z,4.20
2024-05-09T03:39:32.915Z,3.70
2024-05-09T03:42:10.767Z,4.80
2024-05-09T03:44:48.009Z,4.30
2024-05-09T03:47:25.376Z,5.00
2024-05-09T03:50:04.412Z,5.90
2024-05-09T03:52:42.673Z,4.80
2024-05-09T03:55:20.015Z,4.30
2024-05-09T03:57:57.222Z,5.90
2024-05-09T04:00:38.231Z,4.20
2024-05-09T04:03:17.227Z,4.80
2024-05-09T04:05:54.616Z,4.20
2024-05-09T04:08:31.885Z,5.20
2024-05-09T04:11:09.693Z,3.80
2024-05-09T04:13:47.093Z,3.60
2024-05-09T04:16:24.262Z,5.00
2024-05-09T04:19:03.259Z,4.20
2024-05-09T04:21:41.027Z,4.20
2024-05-09T04:24:18.239Z,5.10
2024-05-09T04:26:55.513Z,4.60
2024-05-09T04:29:32.890Z,4.20
2024-05-09T04:32:11.038Z,5.40
2024-05-09T04:34:48.320Z,4.90
2024-05-09T04:37:25.579Z,4.70
2024-05-09T04:40:03.106Z,6.00
2024-05-09T04:42:42.548Z,6.20
2024-05-09T04:45:19.827Z,3.80
2024-05-09T04:47:57.259Z,4.80
2024-05-09T04:50:38.260Z,4.30
2024-05-09T04:53:20.527Z,4.00
2024-05-09T04:55:58.059Z,4.30
2024-05-09T04:58:35.321Z,5.10
2024-05-09T05:01:12.812Z,4.30
2024-05-09T05:03:50.197Z,3.70
2024-05-09T05:06:27.643Z,3.50
2024-05-09T05:09:06.223Z,4.60
2024-05-09T05:11:43.670Z,5.10
2024-05-09T05:14:21.096Z,4.70
2024-05-09T05:16:58.436Z,4.00
2024-05-09T05:19:35.870Z,4.50
2024-05-09T05:22:13.274Z,5.30
2024-05-09T05:24:50.482Z,4.40
2024-05-09T05:27:27.711Z,6.30
2024-05-09T05:30:09.418Z,3.90
2024-05-09T05:32:47.004Z,5.30
2024-05-09T05:35:24.563Z,4.70
2024-05-09T05:38:02.176Z,4.70
2024-05-09T05:40:40.989Z,4.20
2024-05-09T05:43:21.965Z,4.00
2024-05-09T05:45:59.162Z,4.60
2024-05-09T05:48:36.490Z,5.90
2024-05-09T05:51:14.017Z,5.20
2024-05-09T05:53:51.288Z,5.80
2024-05-09T05:56:28.757Z,4.40
2024-05-09T05:59:06.840Z,3.80
2024-05-09T06:01:44.308Z,5.20
2024-05-09T06:04:22.473Z,4.50
2024-05-09T06:07:00.727Z,5.20
2024-05-09T06:09:39.345Z,4.40
2024-05-09T06:12:17.728Z,5.40
2024-05-09T06:14:55.509Z,5.00
2024-05-09T06:17:33.194Z,5.20
2024-05-09T06:20:20.251Z,4.10
2024-05-09T06:23:02.565Z,4.60
2024-05-09T06:25:40.589Z,4.90
2024-05-09T06:28:18.026Z,4.40
2024-05-09T06:30:55.520Z,6.20
2024-05-09T06:33:33.394Z,5.60
2024-05-09T06:36:12.098Z,3.90
2024-05-09T06:38:49.631Z,3.70
2024-05-09T06:41:27.418Z,4.00
2024-05-09T06:44:07.317Z,5.10
2024-05-09T06:46:45.561Z,5.80
2024-05-09T06:49:23.466Z,4.50
2024-05-09T06:52:01.126Z,5.50
2024-05-09T06:54:38.818Z,4.20
2024-05-09T06:57:16.519Z,4.30
2024-05-09T06:59:54.060Z,4.70
2024-05-09T07:02:32.303Z,3.50
2024-05-09T07:05:11.279Z,5.20
2024-05-09T07:10:29.043Z,3.90
2024-05-09T07:13:15.050Z,3.60
2024-05-09T07:15:53.201Z,4.20
2024-05-09T07:18:31.804Z,4.60
2024-05-09T07:21:10.024Z,5.00
2024-05-09T07:23:47.913Z,3.60
2024-05-09T07:26:25.674Z,3.50
2024-05-09T07:29:04.367Z,4.30
2024-05-09T07:31:41.909Z,4.60
2024-05-09T07:34:19.729Z,3.80
2024-05-09T07:36:57.415Z,3.80
2024-05-09T07:39:34.884Z,4.10
2024-05-09T07:42:12.779Z,4.90
2024-05-09T07:44:50.384Z,4.60
2024-05-09T07:53:35.278Z,4.20
2024-05-09T07:55:47.718Z,4.00
2024-05-09T07:58:27.855Z,3.90
2024-05-09T08:01:05.867Z,4.30
2024-05-09T08:03:43.891Z,3.30
2024-05-09T08:06:21.448Z,4.30
2024-05-09T08:09:02.814Z,3.70
2024-05-09T08:11:43.436Z,3.60
2024-05-09T08:14:20.933Z,3.50
2024-05-09T08:16:58.446Z,4.30
2024-05-09T08:19:37.843Z,4.10
2024-05-09T08:22:15.538Z,4.30
2024-05-09T08:24:53.199Z,5.20
2024-05-09T08:27:31.071Z,3.10
2024-05-09T08:30:15.466Z,4.20
2024-05-09T08:32:59.157Z,3.60
2024-05-09T08:35:37.026Z,3.40
2024-05-09T08:38:14.612Z,4.00
2024-05-09T08:40:52.526Z,3.30
2024-05-09T08:43:32.381Z,3.40
2024-05-09T08:46:11.372Z,4.00
2024-05-09T08:48:50.795Z,3.10
2024-05-09T08:51:29.229Z,4.60
2024-05-09T08:54:07.472Z,4.10
2024-05-09T08:56:48.425Z,3.70
2024-05-09T08:59:30.584Z,3.30
2024-05-09T09:02:09.084Z,3.50
2024-05-09T09:04:53.716Z,3.40
2024-05-09T09:07:32.521Z,3.40
2024-05-09T09:13:00.851Z,2.70
2024-05-09T09:15:48.683Z,3.70
2024-05-09T09:18:27.634Z,3.10
2024-05-09T09:21:05.552Z,3.40
2024-05-09T09:23:44.400Z,3.20
2024-05-09T09:26:25.393Z,4.30
2024-05-09T09:29:07.547Z,3.30
2024-05-09T09:31:45.075Z,3.80
2024-05-09T09:34:22.810Z,3.30
2024-05-09T09:37:06.673Z,3.40
2024-05-09T09:39:49.053Z,4.50
2024-05-09T09:42:30.105Z,3.70
2024-05-09T09:45:09.452Z,4.20
2024-05-09T09:47:49.322Z,4.20
2024-05-09T09:50:33.877Z,3.90
2024-05-09T09:53:13.107Z,5.90
2024-05-09T09:55:51.484Z,4.50
2024-05-09T09:58:29.964Z,3.50
2024-05-09T10:03:42.518Z,4.10
2024-05-09T10:06:21.581Z,3.00
2024-05-09T10:09:00.007Z,4.60
2024-05-09T10:11:42.034Z,4.20
2024-05-09T10:14:31.004Z,4.10
2024-05-09T10:17:11.890Z,3.80
2024-05-09T10:19:49.197Z,4.00
2024-05-09T10:22:34.064Z,4.10
2024-05-09T10:25:12.645Z,4.50
2024-05-09T10:30:36.300Z,4.40
2024-05-09T10:33:17.028Z,4.60
2024-05-09T10:36:05.285Z,4.80
2024-05-09T10:38:42.806Z,4.90
2024-05-09T10:41:22.056Z,3.40
2024-05-09T10:43:59.301Z,4.80
2024-05-09T10:46:36.590Z,3.40
2024-05-09T10:49:16.427Z,3.80
2024-05-09T10:51:55.023Z,4.30
2024-05-09T10:54:41.073Z,3.00
2024-05-09T10:57:19.834Z,3.10
2024-05-09T10:59:57.067Z,3.80
2024-05-09T11:02:34.545Z,4.60
2024-05-09T11:05:12.449Z,3.40
2024-05-09T11:07:49.760Z,3.10
2024-05-09T11:10:33.749Z,3.90
2024-05-09T11:13:12.041Z,3.20
2024-05-09T11:15:49.542Z,3.70
2024-05-09T11:18:31.918Z,3.60
2024-05-09T11:21:17.277Z,3.90
2024-05-09T11:23:54.868Z,5.20
2024-05-09T11:26:34.090Z,3.80
2024-05-09T11:29:15.737Z,4.20
2024-05-09T11:31:54.685Z,4.00
2024-05-09T11:34:32.106Z,4.40
2024-05-09T11:37:10.345Z,3.30
2024-05-09T11:39:47.771Z,3.40
2024-05-09T11:42:26.108Z,4.70
2024-05-09T11:45:03.293Z,2.70
2024-05-09T11:47:41.153Z,3.10
2024-05-09T11:50:26.901Z,3.20
2024-05-09T11:53:07.922Z,3.70
2024-05-09T11:55:45.186Z,3.70
2024-05-09T11:58:23.645Z,3.10
2024-05-09T12:01:02.004Z,3.20
2024-05-09T12:03:40.776Z,3.30
2024-05-09T12:06:18.532Z,3.00
2024-05-09T12:08:56.206Z,3.40
2024-05-09T12:11:33.627Z,4.60
2024-05-09T12:14:11.024Z,2.60
2024-05-09T12:16:48.537Z,4.50
2024-05-09T12:19:25.950Z,4.00
2024-05-09T12:22:03.398Z,4.20
2024-05-09T12:24:40.876Z,4.00
2024-05-09T12:27:18.624Z,5.60
2024-05-09T12:29:55.944Z,4.80
2024-05-09T12:32:33.252Z,3.50
2024-05-09T12:35:10.854Z,4.50
2024-05-09T12:37:48.121Z,3.60
2024-05-09T12:40:34.316Z,3.70
2024-05-09T12:43:14.855Z,3.80
2024-05-09T12:45:52.523Z,3.30
2024-05-09T12:48:30.045Z,3.20
2024-05-09T12:51:07.995Z,3.60
2024-05-09T12:53:45.239Z,4.40
2024-05-09T12:56:22.571Z,3.60
2024-05-09T12:59:00.186Z,4.00
2024-05-09T13:01:37.611Z,4.30
2024-05-09T13:04:15.004Z,3.00
2024-05-09T13:06:52.466Z,4.70
2024-05-09T13:09:29.867Z,2.90
2024-05-09T13:12:07.707Z,3.30
2024-05-09T13:14:44.922Z,4.50
2024-05-09T13:17:22.322Z,4.60
2024-05-09T13:19:59.655Z,5.00
2024-05-09T13:22:38.468Z,3.20
2024-05-09T13:25:16.552Z,3.20
2024-05-09T13:27:54.270Z,4.50
2024-05-09T13:30:39.245Z,3.60
2024-05-09T13:33:19.208Z,2.60
2024-05-09T13:35:56.801Z,3.50
2024-05-09T13:38:34.154Z,3.10
2024-05-09T13:41:11.757Z,2.60
2024-05-09T13:43:49.009Z,3.70
2024-05-09T13:46:27.086Z,2.70
2024-05-09T13:49:07.678Z,2.40
2024-05-09T13:51:45.837Z,3.90
2024-05-09T13:54:23.029Z,3.70
2024-05-09T13:57:03.474Z,3.00
2024-05-09T13:59:40.671Z,3.00
2024-05-09T14:02:18.190Z,2.70
2024-05-09T14:04:56.050Z,3.20
2024-05-09T14:07:33.460Z,3.00
2024-05-09T14:10:19.491Z,2.80
2024-05-09T14:13:01.273Z,3.20
2024-05-09T14:18:14.572Z,3.00
2024-05-09T14:20:52.231Z,3.10
2024-05-09T14:23:29.548Z,3.30
2024-05-09T14:26:07.362Z,3.30
2024-05-09T14:28:44.570Z,3.70
2024-05-09T14:31:22.670Z,3.50
2024-05-09T14:34:00.101Z,3.60
2024-05-09T14:36:37.781Z,3.50
2024-05-09T14:39:15.346Z,3.20
2024-05-09T14:41:52.841Z,3.30
2024-05-09T14:44:30.142Z,2.70
2024-05-09T14:47:07.479Z,3.20
2024-05-09T14:49:44.831Z,5.10
2024-05-09T14:52:22.122Z,4.30
2024-05-09T14:55:00.526Z,3.00
2024-05-09T14:57:38.655Z,2.80
2024-05-09T15:00:24.831Z,3.30
2024-05-09T15:03:05.976Z,3.40
2024-05-09T15:05:43.491Z,3.90
2024-05-09T15:08:22.587Z,2.70
2024-05-09T15:10:59.958Z,3.20
2024-05-09T15:13:37.212Z,2.70
2024-05-09T15:16:14.597Z,3.40
2024-05-09T15:18:52.178Z,2.90
2024-05-09T15:21:29.634Z,3.70
2024-05-09T15:24:09.478Z,3.40
2024-05-09T15:26:46.774Z,4.50
2024-05-09T15:29:24.034Z,3.50
2024-05-09T15:32:01.308Z,3.10
2024-05-09T15:34:38.736Z,3.10
2024-05-09T15:37:16.145Z,3.70
2024-05-09T15:39:53.698Z,3.70
2024-05-09T15:42:31.203Z,3.10
2024-05-09T15:45:10.041Z,3.90
2024-05-09T15:47:48.377Z,5.60
2024-05-09T15:50:35.956Z,4.60
2024-05-09T15:53:17.575Z,5.40
2024-05-09T15:55:54.795Z,3.10
2024-05-09T15:58:32.511Z,3.70
2024-05-09T16:01:10.435Z,5.30
2024-05-09T16:03:48.029Z,4.50
2024-05-09T16:06:25.752Z,3.80
2024-05-09T16:09:03.112Z,4.20
2024-05-09T16:11:42.997Z,4.20
2024-05-09T16:14:20.773Z,3.70
2024-05-09T16:16:58.163Z,3.90
2024-05-09T16:19:35.522Z,5.10
2024-05-09T16:22:12.873Z,3.10
2024-05-09T16:24:50.758Z,3.50
2024-05-09T16:27:27.999Z,3.70
2024-05-09T16:30:09.479Z,3.80
2024-05-09T16:32:52.820Z,3.30
2024-05-09T16:35:30.173Z,3.00
2024-05-09T16:38:07.839Z,4.10
2024-05-09T16:40:45.566Z,3.20
2024-05-09T16:43:23.274Z,4.10
2024-05-09T16:46:00.748Z,4.10
2024-05-09T16:48:40.862Z,3.50
2024-05-09T16:51:18.238Z,4.20
2024-05-09T16:53:55.455Z,3.00
2024-05-09T16:56:32.715Z,3.30
2024-05-09T16:59:10.418Z,3.50
2024-05-09T17:01:47.740Z,6.10
2024-05-09T17:04:25.301Z,4.10
2024-05-09T17:07:02.850Z,2.70
2024-05-09T17:09:43.194Z,3.40
2024-05-09T17:12:20.470Z,3.00
2024-05-09T17:14:57.645Z,3.20
2024-05-09T17:17:34.998Z,2.80
2024-05-09T17:20:25.580Z,5.10
2024-05-09T17:23:13.741Z,3.70
2024-05-09T17:25:51.662Z,3.30
2024-05-09T17:28:29.266Z,4.30
2024-05-09T17:31:07.577Z,3.20
2024-05-09T17:33:45.151Z,2.60
2024-05-09T17:36:22.566Z,3.20
2024-05-09T17:38:59.812Z,3.30
2024-05-09T17:41:37.251Z,3.00
2024-05-09T17:44:15.383Z,3.80
2024-05-09T17:46:53.131Z,3.30
2024-05-09T17:49:30.460Z,2.50
2024-05-09T17:52:08.484Z,2.90
2024-05-09T17:54:45.815Z,3.60
2024-05-09T17:57:23.262Z,4.40
2024-05-09T18:00:00.511Z,2.80
2024-05-09T18:02:37.896Z,3.00
2024-05-09T18:05:15.340Z,2.80
2024-05-09T18:07:52.736Z,3.20
2024-05-09T18:10:35.986Z,3.30
2024-05-09T18:13:16.376Z,3.00
2024-05-09T18:15:53.644Z,3.10
2024-05-09T18:18:31.402Z,4.00
2024-05-09T18:21:08.913Z,4.30
2024-05-09T18:23:46.461Z,3.60
2024-05-09T18:26:24.135Z,3.30
2024-05-09T18:29:01.845Z,2.70
2024-05-09T18:31:39.143Z,3.00
2024-05-09T18:34:17.400Z,3.30
2024-05-09T18:36:54.931Z,3.70
2024-05-09T18:39:33.048Z,3.00
2024-05-09T18:42:11.140Z,3.30
2024-05-09T18:44:48.343Z,4.40
2024-05-09T18:47:26.832Z,3.20
2024-05-09T18:50:09.185Z,4.00
2024-05-09T18:52:51.933Z,3.10
2024-05-09T18:55:30.129Z,4.00
2024-05-09T18:58:07.989Z,3.70
2024-05-09T19:00:48.479Z,3.90
2024-05-09T19:03:28.841Z,3.90
2024-05-09T19:06:08.101Z,4.50
2024-05-09T19:08:45.701Z,4.90
2024-05-09T19:11:24.667Z,4.20
2024-05-09T19:14:04.466Z,3.50
2024-05-09T19:16:45.524Z,4.10
2024-05-09T19:19:22.864Z,7.10
2024-05-09T19:22:02.772Z,4.90
2024-05-09T19:24:41.051Z,4.50
2024-05-09T19:27:18.714Z,3.20
2024-05-09T19:29:58.031Z,3.30
2024-05-09T19:32:39.598Z,4.20
2024-05-09T19:35:18.024Z,3.40
2024-05-09T19:37:56.505Z,4.40
2024-05-09T19:40:38.422Z,3.50
2024-05-09T19:43:17.242Z,3.60
2024-05-09T19:45:55.676Z,4.30
2024-05-09T19:48:34.604Z,4.30
2024-05-09T19:51:12.416Z,3.90
2024-05-09T19:56:27.091Z,4.40
2024-05-09T19:59:05.486Z,4.20
2024-05-09T20:01:45.229Z,4.50
2024-05-09T20:04:23.565Z,4.60
2024-05-09T20:07:04.574Z,5.30
2024-05-09T20:09:41.941Z,7.20
2024-05-09T20:12:19.387Z,4.40
2024-05-09T20:14:56.588Z,5.80
2024-05-09T20:17:34.957Z,6.80
2024-05-09T20:20:24.562Z,6.80
2024-05-09T20:23:12.471Z,6.60
2024-05-09T20:25:52.294Z,6.70
2024-05-09T20:28:29.725Z,7.30
2024-05-09T20:31:08.819Z,6.70
2024-05-09T20:33:46.999Z,6.40
2024-05-09T20:36:25.441Z,5.50
2024-05-09T20:39:02.614Z,5.40
2024-05-09T20:41:43.120Z,5.90
2024-05-09T20:44:22.338Z,4.90
2024-05-09T20:46:59.643Z,4.60
2024-05-09T20:49:37.838Z,5.10
2024-05-09T20:52:15.184Z,5.00
2024-05-09T20:54:52.498Z,5.40
2024-05-09T20:57:29.861Z,5.50
2024-05-09T21:00:14.839Z,5.90
2024-05-09T21:02:55.685Z,6.10
2024-05-09T21:05:33.239Z,5.70
2024-05-09T21:08:11.734Z,7.10
2024-05-09T21:10:49.081Z,7.40
2024-05-09T21:13:26.417Z,5.70
2024-05-09T21:16:03.765Z,5.10
2024-05-09T21:18:41.111Z,6.00
2024-05-09T21:21:18.490Z,6.10
2024-05-09T21:23:55.677Z,4.60
2024-05-09T21:26:33.474Z,6.80
2024-05-09T21:29:11.821Z,5.10
2024-05-09T21:31:49.199Z,4.90
2024-05-09T21:34:26.609Z,5.80
2024-05-09T21:37:03.983Z,6.80
2024-05-09T21:39:41.318Z,6.50
2024-05-09T21:42:18.509Z,8.40
2024-05-09T21:44:55.753Z,8.80
2024-05-09T21:47:33.222Z,7.10
2024-05-09T21:50:22.064Z,7.00
2024-05-09T21:53:00.737Z,6.40
2024-05-09T21:55:37.888Z,7.40
2024-05-09T21:58:16.091Z,6.00
2024-05-09T22:00:53.505Z,5.20
2024-05-09T22:03:30.919Z,4.30
2024-05-09T22:06:08.466Z,5.00
2024-05-09T22:08:45.794Z,5.40
2024-05-09T22:11:23.112Z,4.80
2024-05-09T22:14:00.414Z,4.10
2024-05-09T22:16:42.325Z,5.50
2024-05-09T22:19:19.869Z,5.60
2024-05-09T22:21:57.698Z,3.40
2024-05-09T22:24:35.670Z,3.50
2024-05-09T22:27:13.276Z,5.20
2024-05-09T22:29:50.591Z,6.20
2024-05-09T22:32:27.888Z,4.70
2024-05-09T22:35:07.806Z,5.00
2024-05-09T22:37:45.107Z,3.80
2024-05-09T22:40:32.136Z,4.20
2024-05-09T22:43:16.130Z,5.70
2024-05-09T22:45:54.334Z,4.20
2024-05-09T22:48:32.365Z,4.70
2024-05-09T22:51:10.112Z,4.70
2024-05-09T22:53:47.282Z,4.90
2024-05-09T22:56:31.725Z,4.80
2024-05-09T22:59:09.868Z,6.50
2024-05-09T23:01:47.271Z,7.30
2024-05-09T23:04:24.567Z,7.50
2024-05-09T23:07:01.747Z,14.60
2024-05-09T23:09:38.877Z,12.70
2024-05-09T23:12:17.676Z,11.00
2024-05-09T23:17:29.191Z,10.60
2024-05-09T23:20:08.887Z,7.80
2024-05-09T23:22:48.744Z,8.40
2024-05-09T23:25:25.835Z,5.90
2024-05-09T23:28:03.551Z,5.50
2024-05-09T23:30:41.841Z,4.80
2024-05-09T23:35:54.831Z,4.30
2024-05-09T23:38:31.843Z,4.20
2024-05-09T23:41:09.201Z,4.00
2024-05-09T23:43:46.525Z,6.30
2024-05-09T23:46:23.811Z,4.10
2024-05-09T23:49:01.283Z,5.60
2024-05-09T23:51:38.764Z,5.10
2024-05-09T23:54:17.565Z,5.10
2024-05-09T23:59:29.073Z,3.80
